Cessnock, New South Wales

4:13 PM AEDT on February 11, 2016 (GMT +1100)
mySmart Farm - Hunter Valley | | Change Station
CLOSE
Current Station
Personal Weather Station
Location: Pokolbin, NEW SOUTH WALES
Elevation: 440 ft
Nearby Weather Stations

Elev 440 ft 32.82 °S, 151.32 °E | Updated 5 minutes ago

Partly Cloudy
Partly Cloudy
82.8 °F
Feels Like 85 °F
N
11.0
Wind Variable Wind from East
Gusts 15.0 mph

Today
High -- | Low -- °F
--% Chance of Precip.
Yesterday
High -- | Low -- °F
Precip. -- in
Pressure 29.92 in
Visibility 6.2 miles
Clouds Few 3500 ft
Heat Index 85 °F
Dew Point 65 °F
Humidity 56%
Rainfall 0.00 in
Snow Depth Not available.
6:26 AM 7:50 PM
Waxing Crescent, 9% visible
METAR YWLM 110500Z 11014KT 9999 FEW035 27/18 Q1013 NOSIG
Pressure 29.92 in
Visibility 6.2 miles
Clouds Few 3500 ft
Heat Index 85 °F
Dew Point 65 °F
Humidity 56%
Rainfall 0.00 in
Snow Depth Not available.
6:26 AM 7:50 PM
Waxing Crescent, 9% visible
METAR YWLM 110500Z 11014KT 9999 FEW035 27/18 Q1013 NOSIG

10-Day Weather Forecast

Almanac

Astronomy

Feb. 11, 2016 Rise Set
Actual Time
Civil Twilight
Nautical Twilight
Astronomical Twilight
Moon
Length of Visible Light
Length of Day
Tomorrow will be .
, % of the Moon is Illuminated

Today's Extremes

Country Highs Country Lows

Community

WunderPhotos

Upload Photos

1,892,023 photos uploaded!

WunderBlog® & News

Nearby

Air Quality

  Air Quality AQ Index Pollutant
Not available.

Snow Depth

Station Depth Elevation

Earthquake Activity

City Distance Mag. Time & Date
Minimum magnitude displayed is 2.5.

Coastal Water Temperatures

Place Temperature

Stations

Nearby Weather Stations

Station Location Temp. Windchill Dew Point Humidity Wind Precip. Elev Updated Type